sensor_id;sensor_type;location;lat;lon;timestamp;P1;durP1;ratioP1;P2;durP2;ratioP2
15466;SDS011;7834;49.452;11.056;2023-04-21T00:00:16;23.10;;;20.25;;
15466;SDS011;7834;49.452;11.056;2023-04-21T00:02:42;26.05;;;21.90;;
15466;SDS011;7834;49.452;11.056;2023-04-21T00:05:10;25.75;;;22.45;;
15466;SDS011;7834;49.452;11.056;2023-04-21T00:07:38;24.52;;;21.58;;
15466;SDS011;7834;49.452;11.056;2023-04-21T00:10:10;23.63;;;20.92;;
15466;SDS011;7834;49.452;11.056;2023-04-21T00:12:36;24.95;;;21.23;;
15466;SDS011;7834;49.452;11.056;2023-04-21T00:15:03;25.40;;;21.63;;
15466;SDS011;7834;49.452;11.056;2023-04-21T00:17:30;24.70;;;20.65;;
15466;SDS011;7834;49.452;11.056;2023-04-21T00:19:56;25.42;;;21.27;;
15466;SDS011;7834;49.452;11.056;2023-04-21T00:22:22;23.40;;;20.73;;
15466;SDS011;7834;49.452;11.056;2023-04-21T00:24:48;23.48;;;20.92;;
15466;SDS011;7834;49.452;11.056;2023-04-21T00:27:14;23.25;;;20.48;;
15466;SDS011;7834;49.452;11.056;2023-04-21T00:29:40;23.07;;;20.27;;
15466;SDS011;7834;49.452;11.056;2023-04-21T00:32:06;23.88;;;21.20;;
15466;SDS011;7834;49.452;11.056;2023-04-21T00:34:34;24.77;;;21.30;;
15466;SDS011;7834;49.452;11.056;2023-04-21T00:37:00;24.52;;;20.02;;
15466;SDS011;7834;49.452;11.056;2023-04-21T00:39:26;23.27;;;20.30;;
15466;SDS011;7834;49.452;11.056;2023-04-21T00:41:52;24.23;;;21.10;;
15466;SDS011;7834;49.452;11.056;2023-04-21T00:44:18;23.13;;;20.50;;
15466;SDS011;7834;49.452;11.056;2023-04-21T00:46:44;23.00;;;20.27;;
15466;SDS011;7834;49.452;11.056;2023-04-21T00:49:11;24.92;;;21.35;;
15466;SDS011;7834;49.452;11.056;2023-04-21T00:51:37;23.85;;;20.48;;
15466;SDS011;7834;49.452;11.056;2023-04-21T00:54:04;23.90;;;20.67;;
15466;SDS011;7834;49.452;11.056;2023-04-21T00:56:31;24.63;;;20.80;;
15466;SDS011;7834;49.452;11.056;2023-04-21T00:58:58;24.30;;;21.30;;
15466;SDS011;7834;49.452;11.056;2023-04-21T01:01:25;25.30;;;21.05;;
15466;SDS011;7834;49.452;11.056;2023-04-21T01:03:53;25.02;;;21.52;;
15466;SDS011;7834;49.452;11.056;2023-04-21T01:06:21;26.02;;;21.40;;
15466;SDS011;7834;49.452;11.056;2023-04-21T01:08:47;23.88;;;20.77;;
15466;SDS011;7834;49.452;11.056;2023-04-21T01:11:13;24.00;;;21.17;;
15466;SDS011;7834;49.452;11.056;2023-04-21T01:13:39;24.23;;;21.50;;
15466;SDS011;7834;49.452;11.056;2023-04-21T01:16:06;24.40;;;21.50;;
15466;SDS011;7834;49.452;11.056;2023-04-21T01:18:32;24.50;;;21.30;;
15466;SDS011;7834;49.452;11.056;2023-04-21T01:20:59;24.25;;;21.48;;
15466;SDS011;7834;49.452;11.056;2023-04-21T01:23:26;24.83;;;21.08;;
15466;SDS011;7834;49.452;11.056;2023-04-21T01:25:52;25.87;;;21.90;;
15466;SDS011;7834;49.452;11.056;2023-04-21T01:28:21;26.63;;;22.83;;
15466;SDS011;7834;49.452;11.056;2023-04-21T01:30:47;25.65;;;21.65;;
15466;SDS011;7834;49.452;11.056;2023-04-21T01:33:13;25.77;;;22.13;;
15466;SDS011;7834;49.452;11.056;2023-04-21T01:35:40;24.58;;;21.17;;
15466;SDS011;7834;49.452;11.056;2023-04-21T01:38:06;24.40;;;21.80;;
15466;SDS011;7834;49.452;11.056;2023-04-21T01:40:32;24.45;;;21.75;;
15466;SDS011;7834;49.452;11.056;2023-04-21T01:42:58;24.30;;;20.70;;
15466;SDS011;7834;49.452;11.056;2023-04-21T01:45:24;26.30;;;22.83;;
15466;SDS011;7834;49.452;11.056;2023-04-21T01:47:50;25.20;;;22.23;;
15466;SDS011;7834;49.452;11.056;2023-04-21T01:50:16;24.70;;;22.03;;
15466;SDS011;7834;49.452;11.056;2023-04-21T01:52:42;25.03;;;22.33;;
15466;SDS011;7834;49.452;11.056;2023-04-21T01:55:08;25.00;;;21.48;;
15466;SDS011;7834;49.452;11.056;2023-04-21T01:57:34;25.52;;;22.13;;
15466;SDS011;7834;49.452;11.056;2023-04-21T02:00:01;25.63;;;22.63;;
15466;SDS011;7834;49.452;11.056;2023-04-21T02:02:27;25.40;;;21.73;;
15466;SDS011;7834;49.452;11.056;2023-04-21T02:04:53;25.83;;;21.90;;
15466;SDS011;7834;49.452;11.056;2023-04-21T02:07:19;25.33;;;22.20;;
15466;SDS011;7834;49.452;11.056;2023-04-21T02:09:45;25.30;;;22.42;;
15466;SDS011;7834;49.452;11.056;2023-04-21T02:12:11;24.73;;;21.55;;
15466;SDS011;7834;49.452;11.056;2023-04-21T02:14:37;25.90;;;22.75;;
15466;SDS011;7834;49.452;11.056;2023-04-21T02:17:03;26.48;;;22.30;;
15466;SDS011;7834;49.452;11.056;2023-04-21T02:19:29;26.83;;;23.17;;
15466;SDS011;7834;49.452;11.056;2023-04-21T02:21:55;27.20;;;22.88;;
15466;SDS011;7834;49.452;11.056;2023-04-21T02:24:21;25.75;;;22.95;;
15466;SDS011;7834;49.452;11.056;2023-04-21T02:26:47;26.98;;;23.13;;
15466;SDS011;7834;49.452;11.056;2023-04-21T02:29:14;25.97;;;22.57;;
15466;SDS011;7834;49.452;11.056;2023-04-21T02:31:40;26.65;;;22.25;;
15466;SDS011;7834;49.452;11.056;2023-04-21T02:34:06;25.23;;;22.13;;
15466;SDS011;7834;49.452;11.056;2023-04-21T02:36:32;23.85;;;20.98;;
15466;SDS011;7834;49.452;11.056;2023-04-21T02:38:58;30.08;;;22.73;;
15466;SDS011;7834;49.452;11.056;2023-04-21T02:41:24;25.53;;;22.07;;
15466;SDS011;7834;49.452;11.056;2023-04-21T02:43:50;26.30;;;22.20;;
15466;SDS011;7834;49.452;11.056;2023-04-21T02:46:16;26.23;;;22.45;;
15466;SDS011;7834;49.452;11.056;2023-04-21T02:48:42;25.88;;;21.65;;
15466;SDS011;7834;49.452;11.056;2023-04-21T02:51:12;23.65;;;20.67;;
15466;SDS011;7834;49.452;11.056;2023-04-21T02:53:38;24.98;;;21.13;;
15466;SDS011;7834;49.452;11.056;2023-04-21T02:56:05;25.75;;;21.40;;
15466;SDS011;7834;49.452;11.056;2023-04-21T02:58:32;26.23;;;22.27;;
15466;SDS011;7834;49.452;11.056;2023-04-21T03:00:59;26.20;;;22.67;;
15466;SDS011;7834;49.452;11.056;2023-04-21T03:03:25;25.73;;;22.00;;
15466;SDS011;7834;49.452;11.056;2023-04-21T03:05:55;26.95;;;22.92;;
15466;SDS011;7834;49.452;11.056;2023-04-21T03:08:21;25.55;;;22.42;;
15466;SDS011;7834;49.452;11.056;2023-04-21T03:10:47;25.58;;;21.95;;
15466;SDS011;7834;49.452;11.056;2023-04-21T03:13:13;25.63;;;22.58;;
15466;SDS011;7834;49.452;11.056;2023-04-21T03:15:39;25.60;;;21.88;;
15466;SDS011;7834;49.452;11.056;2023-04-21T03:18:05;26.02;;;22.35;;
15466;SDS011;7834;49.452;11.056;2023-04-21T03:20:31;26.00;;;23.15;;
15466;SDS011;7834;49.452;11.056;2023-04-21T03:22:57;27.70;;;23.67;;
15466;SDS011;7834;49.452;11.056;2023-04-21T03:25:23;29.10;;;23.77;;
15466;SDS011;7834;49.452;11.056;2023-04-21T03:27:51;30.63;;;24.65;;
15466;SDS011;7834;49.452;11.056;2023-04-21T03:30:17;28.50;;;23.92;;
15466;SDS011;7834;49.452;11.056;2023-04-21T03:32:44;29.08;;;23.50;;
15466;SDS011;7834;49.452;11.056;2023-04-21T03:35:10;29.33;;;24.27;;
15466;SDS011;7834;49.452;11.056;2023-04-21T03:37:36;29.85;;;24.90;;
15466;SDS011;7834;49.452;11.056;2023-04-21T03:40:02;29.00;;;24.13;;
15466;SDS011;7834;49.452;11.056;2023-04-21T03:42:30;28.73;;;24.33;;
15466;SDS011;7834;49.452;11.056;2023-04-21T03:45:00;27.70;;;24.15;;
15466;SDS011;7834;49.452;11.056;2023-04-21T03:47:26;30.10;;;24.87;;
15466;SDS011;7834;49.452;11.056;2023-04-21T03:49:52;27.10;;;23.33;;
15466;SDS011;7834;49.452;11.056;2023-04-21T03:52:18;29.38;;;24.27;;
15466;SDS011;7834;49.452;11.056;2023-04-21T03:54:44;27.50;;;23.65;;
15466;SDS011;7834;49.452;11.056;2023-04-21T03:57:10;26.48;;;23.58;;
15466;SDS011;7834;49.452;11.056;2023-04-21T03:59:36;27.60;;;22.45;;
15466;SDS011;7834;49.452;11.056;2023-04-21T04:02:02;26.15;;;22.65;;
15466;SDS011;7834;49.452;11.056;2023-04-21T04:04:28;29.67;;;22.85;;
15466;SDS011;7834;49.452;11.056;2023-04-21T04:06:54;26.42;;;22.90;;
15466;SDS011;7834;49.452;11.056;2023-04-21T04:09:21;27.52;;;22.60;;
15466;SDS011;7834;49.452;11.056;2023-04-21T04:11:47;30.88;;;23.95;;
15466;SDS011;7834;49.452;11.056;2023-04-21T04:14:13;26.13;;;22.73;;
15466;SDS011;7834;49.452;11.056;2023-04-21T04:16:39;28.98;;;23.50;;
15466;SDS011;7834;49.452;11.056;2023-04-21T04:19:05;27.05;;;22.52;;
15466;SDS011;7834;49.452;11.056;2023-04-21T04:21:31;28.63;;;23.90;;
15466;SDS011;7834;49.452;11.056;2023-04-21T04:23:58;28.75;;;23.40;;
15466;SDS011;7834;49.452;11.056;2023-04-21T04:26:24;29.40;;;23.38;;
15466;SDS011;7834;49.452;11.056;2023-04-21T04:28:50;29.67;;;23.83;;
15466;SDS011;7834;49.452;11.056;2023-04-21T04:31:17;29.20;;;25.05;;
15466;SDS011;7834;49.452;11.056;2023-04-21T04:33:43;28.02;;;23.83;;
15466;SDS011;7834;49.452;11.056;2023-04-21T04:36:09;28.73;;;24.42;;
15466;SDS011;7834;49.452;11.056;2023-04-21T04:38:38;28.50;;;24.13;;
15466;SDS011;7834;49.452;11.056;2023-04-21T04:41:05;29.42;;;24.73;;
15466;SDS011;7834;49.452;11.056;2023-04-21T04:43:33;30.48;;;24.42;;
15466;SDS011;7834;49.452;11.056;2023-04-21T04:46:04;32.33;;;24.77;;
15466;SDS011;7834;49.452;11.056;2023-04-21T04:48:30;34.97;;;24.85;;
15466;SDS011;7834;49.452;11.056;2023-04-21T04:50:56;31.08;;;25.05;;
15466;SDS011;7834;49.452;11.056;2023-04-21T04:53:22;31.73;;;24.73;;
15466;SDS011;7834;49.452;11.056;2023-04-21T04:55:48;31.60;;;24.27;;
15466;SDS011;7834;49.452;11.056;2023-04-21T04:58:14;31.10;;;25.33;;
15466;SDS011;7834;49.452;11.056;2023-04-21T05:00:40;31.30;;;24.95;;
15466;SDS011;7834;49.452;11.056;2023-04-21T05:03:06;29.42;;;25.10;;
15466;SDS011;7834;49.452;11.056;2023-04-21T05:05:32;29.50;;;24.77;;
15466;SDS011;7834;49.452;11.056;2023-04-21T05:07:59;30.33;;;25.02;;
15466;SDS011;7834;49.452;11.056;2023-04-21T05:10:25;32.55;;;24.85;;
15466;SDS011;7834;49.452;11.056;2023-04-21T05:12:51;30.45;;;24.85;;
15466;SDS011;7834;49.452;11.056;2023-04-21T05:15:17;32.28;;;24.75;;
15466;SDS011;7834;49.452;11.056;2023-04-21T05:17:43;28.90;;;24.27;;
15466;SDS011;7834;49.452;11.056;2023-04-21T05:20:10;31.33;;;25.00;;
15466;SDS011;7834;49.452;11.056;2023-04-21T05:22:39;28.30;;;23.88;;
15466;SDS011;7834;49.452;11.056;2023-04-21T05:25:05;25.97;;;22.77;;
15466;SDS011;7834;49.452;11.056;2023-04-21T05:27:31;26.85;;;22.70;;
15466;SDS011;7834;49.452;11.056;2023-04-21T05:30:00;25.42;;;21.83;;
15466;SDS011;7834;49.452;11.056;2023-04-21T05:32:26;27.00;;;22.02;;
15466;SDS011;7834;49.452;11.056;2023-04-21T05:34:53;27.35;;;22.30;;
15466;SDS011;7834;49.452;11.056;2023-04-21T05:37:19;26.10;;;20.95;;
15466;SDS011;7834;49.452;11.056;2023-04-21T05:39:45;25.73;;;21.27;;
15466;SDS011;7834;49.452;11.056;2023-04-21T05:42:11;25.38;;;21.13;;
15466;SDS011;7834;49.452;11.056;2023-04-21T05:44:37;24.77;;;20.63;;
15466;SDS011;7834;49.452;11.056;2023-04-21T05:47:03;25.37;;;20.70;;
15466;SDS011;7834;49.452;11.056;2023-04-21T05:49:30;23.40;;;20.05;;
15466;SDS011;7834;49.452;11.056;2023-04-21T05:51:56;24.60;;;20.42;;
15466;SDS011;7834;49.452;11.056;2023-04-21T05:54:22;25.95;;;21.08;;
15466;SDS011;7834;49.452;11.056;2023-04-21T05:56:48;24.98;;;20.33;;
15466;SDS011;7834;49.452;11.056;2023-04-21T05:59:14;23.80;;;20.13;;
15466;SDS011;7834;49.452;11.056;2023-04-21T06:01:40;23.27;;;19.48;;
15466;SDS011;7834;49.452;11.056;2023-04-21T06:04:06;23.30;;;19.30;;
15466;SDS011;7834;49.452;11.056;2023-04-21T06:06:32;24.92;;;19.40;;
15466;SDS011;7834;49.452;11.056;2023-04-21T06:08:58;20.77;;;18.55;;
15466;SDS011;7834;49.452;11.056;2023-04-21T06:11:25;33.88;;;21.75;;
15466;SDS011;7834;49.452;11.056;2023-04-21T06:13:51;22.00;;;18.90;;
15466;SDS011;7834;49.452;11.056;2023-04-21T06:16:22;27.15;;;20.15;;
15466;SDS011;7834;49.452;11.056;2023-04-21T06:18:48;25.57;;;19.63;;
15466;SDS011;7834;49.452;11.056;2023-04-21T06:21:14;25.57;;;20.30;;
15466;SDS011;7834;49.452;11.056;2023-04-21T06:23:40;22.70;;;18.67;;
15466;SDS011;7834;49.452;11.056;2023-04-21T06:26:06;22.83;;;18.90;;
15466;SDS011;7834;49.452;11.056;2023-04-21T06:28:33;23.75;;;18.17;;
15466;SDS011;7834;49.452;11.056;2023-04-21T06:31:00;22.25;;;19.13;;
15466;SDS011;7834;49.452;11.056;2023-04-21T06:33:26;22.63;;;19.17;;
15466;SDS011;7834;49.452;11.056;2023-04-21T06:35:52;23.33;;;18.67;;
15466;SDS011;7834;49.452;11.056;2023-04-21T06:38:19;23.27;;;19.23;;
15466;SDS011;7834;49.452;11.056;2023-04-21T06:40:45;22.90;;;18.88;;
15466;SDS011;7834;49.452;11.056;2023-04-21T06:43:11;22.42;;;18.90;;
15466;SDS011;7834;49.452;11.056;2023-04-21T06:45:37;22.25;;;17.85;;
15466;SDS011;7834;49.452;11.056;2023-04-21T06:48:03;20.55;;;18.35;;
15466;SDS011;7834;49.452;11.056;2023-04-21T06:50:29;22.10;;;17.67;;
15466;SDS011;7834;49.452;11.056;2023-04-21T06:52:55;19.70;;;17.60;;
15466;SDS011;7834;49.452;11.056;2023-04-21T06:55:21;19.80;;;17.70;;
15466;SDS011;7834;49.452;11.056;2023-04-21T06:57:47;21.27;;;16.97;;
15466;SDS011;7834;49.452;11.056;2023-04-21T07:00:13;18.60;;;16.40;;
15466;SDS011;7834;49.452;11.056;2023-04-21T07:02:39;18.98;;;16.30;;
15466;SDS011;7834;49.452;11.056;2023-04-21T07:05:06;18.58;;;15.93;;
15466;SDS011;7834;49.452;11.056;2023-04-21T07:07:32;18.52;;;16.00;;
15466;SDS011;7834;49.452;11.056;2023-04-21T07:09:58;20.35;;;16.17;;
15466;SDS011;7834;49.452;11.056;2023-04-21T07:12:24;16.65;;;14.82;;
15466;SDS011;7834;49.452;11.056;2023-04-21T07:14:50;19.73;;;16.00;;
15466;SDS011;7834;49.452;11.056;2023-04-21T07:17:16;18.53;;;15.70;;
15466;SDS011;7834;49.452;11.056;2023-04-21T07:19:42;17.65;;;15.20;;
15466;SDS011;7834;49.452;11.056;2023-04-21T07:22:08;18.40;;;15.68;;
15466;SDS011;7834;49.452;11.056;2023-04-21T07:24:35;16.48;;;14.52;;
15466;SDS011;7834;49.452;11.056;2023-04-21T07:27:01;16.60;;;14.50;;
15466;SDS011;7834;49.452;11.056;2023-04-21T07:29:28;15.30;;;13.70;;
15466;SDS011;7834;49.452;11.056;2023-04-21T07:31:54;16.10;;;14.05;;
15466;SDS011;7834;49.452;11.056;2023-04-21T07:34:20;16.13;;;14.43;;
15466;SDS011;7834;49.452;11.056;2023-04-21T07:36:46;15.63;;;14.02;;
15466;SDS011;7834;49.452;11.056;2023-04-21T07:39:12;17.20;;;14.20;;
15466;SDS011;7834;49.452;11.056;2023-04-21T07:41:38;15.70;;;14.10;;
15466;SDS011;7834;49.452;11.056;2023-04-21T07:44:04;14.65;;;12.88;;
15466;SDS011;7834;49.452;11.056;2023-04-21T07:46:30;14.95;;;13.35;;
15466;SDS011;7834;49.452;11.056;2023-04-21T07:48:57;15.70;;;13.30;;
15466;SDS011;7834;49.452;11.056;2023-04-21T07:51:24;15.83;;;12.57;;
15466;SDS011;7834;49.452;11.056;2023-04-21T07:53:51;15.35;;;13.20;;
15466;SDS011;7834;49.452;11.056;2023-04-21T07:56:17;14.70;;;13.10;;
15466;SDS011;7834;49.452;11.056;2023-04-21T07:58:43;15.88;;;13.77;;
15466;SDS011;7834;49.452;11.056;2023-04-21T08:01:09;14.30;;;12.80;;
15466;SDS011;7834;49.452;11.056;2023-04-21T08:03:36;14.23;;;12.63;;
15466;SDS011;7834;49.452;11.056;2023-04-21T08:06:02;15.50;;;12.98;;
15466;SDS011;7834;49.452;11.056;2023-04-21T08:08:28;15.68;;;12.60;;
15466;SDS011;7834;49.452;11.056;2023-04-21T08:10:54;12.90;;;10.85;;
15466;SDS011;7834;49.452;11.056;2023-04-21T08:13:20;11.07;;;9.90;;
15466;SDS011;7834;49.452;11.056;2023-04-21T08:15:52;11.43;;;10.23;;
15466;SDS011;7834;49.452;11.056;2023-04-21T08:18:18;11.07;;;9.52;;
15466;SDS011;7834;49.452;11.056;2023-04-21T08:20:44;10.25;;;9.15;;
15466;SDS011;7834;49.452;11.056;2023-04-21T08:23:12;10.43;;;9.43;;
15466;SDS011;7834;49.452;11.056;2023-04-21T08:25:38;11.07;;;9.80;;
15466;SDS011;7834;49.452;11.056;2023-04-21T08:28:04;11.38;;;9.48;;
15466;SDS011;7834;49.452;11.056;2023-04-21T08:30:30;12.07;;;9.50;;
15466;SDS011;7834;49.452;11.056;2023-04-21T08:32:56;10.82;;;9.60;;
15466;SDS011;7834;49.452;11.056;2023-04-21T08:35:22;9.98;;;8.50;;
15466;SDS011;7834;49.452;11.056;2023-04-21T08:37:49;10.15;;;9.10;;
15466;SDS011;7834;49.452;11.056;2023-04-21T08:40:15;9.52;;;8.57;;
15466;SDS011;7834;49.452;11.056;2023-04-21T08:42:41;9.40;;;8.50;;
15466;SDS011;7834;49.452;11.056;2023-04-21T08:45:07;9.75;;;8.82;;
15466;SDS011;7834;49.452;11.056;2023-04-21T08:47:33;10.18;;;9.18;;
15466;SDS011;7834;49.452;11.056;2023-04-21T08:50:02;11.97;;;9.40;;
15466;SDS011;7834;49.452;11.056;2023-04-21T08:52:28;11.13;;;9.55;;
15466;SDS011;7834;49.452;11.056;2023-04-21T08:54:54;11.32;;;9.40;;
15466;SDS011;7834;49.452;11.056;2023-04-21T08:57:21;10.07;;;8.77;;
15466;SDS011;7834;49.452;11.056;2023-04-21T08:59:47;9.63;;;8.70;;
15466;SDS011;7834;49.452;11.056;2023-04-21T09:04:49;8.35;;;7.45;;
15466;SDS011;7834;49.452;11.056;2023-04-21T09:10:00;9.70;;;8.80;;
15466;SDS011;7834;49.452;11.056;2023-04-21T09:12:27;10.45;;;8.15;;
15466;SDS011;7834;49.452;11.056;2023-04-21T09:14:54;11.47;;;8.73;;
15466;SDS011;7834;49.452;11.056;2023-04-21T09:17:26;10.00;;;9.00;;
15466;SDS011;7834;49.452;11.056;2023-04-21T09:19:52;10.00;;;8.50;;
15466;SDS011;7834;49.452;11.056;2023-04-21T09:22:18;8.70;;;7.80;;
15466;SDS011;7834;49.452;11.056;2023-04-21T09:24:45;9.20;;;8.30;;
15466;SDS011;7834;49.452;11.056;2023-04-21T09:27:12;11.02;;;7.43;;
15466;SDS011;7834;49.452;11.056;2023-04-21T09:29:39;8.90;;;7.93;;
15466;SDS011;7834;49.452;11.056;2023-04-21T09:32:11;9.10;;;8.20;;
15466;SDS011;7834;49.452;11.056;2023-04-21T09:34:37;9.32;;;7.13;;
15466;SDS011;7834;49.452;11.056;2023-04-21T09:37:05;8.73;;;7.70;;
15466;SDS011;7834;49.452;11.056;2023-04-21T09:39:32;7.13;;;6.43;;
15466;SDS011;7834;49.452;11.056;2023-04-21T09:41:58;7.90;;;7.00;;
15466;SDS011;7834;49.452;11.056;2023-04-21T09:44:25;7.18;;;6.47;;
15466;SDS011;7834;49.452;11.056;2023-04-21T09:46:53;7.97;;;6.25;;
15466;SDS011;7834;49.452;11.056;2023-04-21T09:49:20;7.45;;;6.13;;
15466;SDS011;7834;49.452;11.056;2023-04-21T09:51:48;8.20;;;6.20;;
15466;SDS011;7834;49.452;11.056;2023-04-21T09:54:17;6.60;;;5.90;;
15466;SDS011;7834;49.452;11.056;2023-04-21T09:56:45;6.90;;;6.30;;
15466;SDS011;7834;49.452;11.056;2023-04-21T09:59:16;7.18;;;6.18;;
15466;SDS011;7834;49.452;11.056;2023-04-21T10:01:44;6.68;;;6.07;;
15466;SDS011;7834;49.452;11.056;2023-04-21T10:04:13;7.63;;;6.85;;
15466;SDS011;7834;49.452;11.056;2023-04-21T10:06:39;7.20;;;6.50;;
15466;SDS011;7834;49.452;11.056;2023-04-21T10:09:05;6.90;;;6.20;;
15466;SDS011;7834;49.452;11.056;2023-04-21T10:11:34;6.80;;;6.10;;
15466;SDS011;7834;49.452;11.056;2023-04-21T10:14:01;6.82;;;6.10;;
15466;SDS011;7834;49.452;11.056;2023-04-21T10:16:27;6.75;;;6.00;;
15466;SDS011;7834;49.452;11.056;2023-04-21T10:18:53;6.88;;;6.28;;
15466;SDS011;7834;49.452;11.056;2023-04-21T10:21:20;6.90;;;6.20;;
15466;SDS011;7834;49.452;11.056;2023-04-21T10:23:48;6.15;;;5.60;;
15466;SDS011;7834;49.452;11.056;2023-04-21T10:31:32;7.17;;;5.57;;
15466;SDS011;7834;49.452;11.056;2023-04-21T10:39:04;5.70;;;5.10;;
15466;SDS011;7834;49.452;11.056;2023-04-21T10:41:30;6.18;;;5.57;;
15466;SDS011;7834;49.452;11.056;2023-04-21T10:44:00;5.70;;;5.10;;
15466;SDS011;7834;49.452;11.056;2023-04-21T10:46:33;7.28;;;5.93;;
15466;SDS011;7834;49.452;11.056;2023-04-21T10:49:09;5.53;;;5.03;;
15466;SDS011;7834;49.452;11.056;2023-04-21T10:54:20;5.40;;;4.90;;
15466;SDS011;7834;49.452;11.056;2023-04-21T10:56:47;5.60;;;5.10;;
15466;SDS011;7834;49.452;11.056;2023-04-21T10:59:14;5.53;;;5.03;;
15466;SDS011;7834;49.452;11.056;2023-04-21T11:01:40;6.70;;;5.47;;
15466;SDS011;7834;49.452;11.056;2023-04-21T11:04:12;6.40;;;5.60;;
15466;SDS011;7834;49.452;11.056;2023-04-21T11:06:38;6.90;;;5.63;;
15466;SDS011;7834;49.452;11.056;2023-04-21T11:09:04;11.38;;;9.20;;
15466;SDS011;7834;49.452;11.056;2023-04-21T11:11:30;6.47;;;5.88;;
15466;SDS011;7834;49.452;11.056;2023-04-21T11:13:59;5.20;;;4.70;;
15466;SDS011;7834;49.452;11.056;2023-04-21T11:16:25;5.18;;;4.65;;
15466;SDS011;7834;49.452;11.056;2023-04-21T11:18:51;6.15;;;5.20;;
15466;SDS011;7834;49.452;11.056;2023-04-21T11:21:18;5.68;;;5.15;;
15466;SDS011;7834;49.452;11.056;2023-04-21T11:23:50;6.13;;;5.50;;
15466;SDS011;7834;49.452;11.056;2023-04-21T11:26:16;6.43;;;5.80;;
15466;SDS011;7834;49.452;11.056;2023-04-21T11:28:46;5.80;;;5.20;;
15466;SDS011;7834;49.452;11.056;2023-04-21T11:31:13;5.75;;;5.25;;
15466;SDS011;7834;49.452;11.056;2023-04-21T11:33:39;4.88;;;4.40;;
15466;SDS011;7834;49.452;11.056;2023-04-21T11:36:05;5.00;;;4.50;;
15466;SDS011;7834;49.452;11.056;2023-04-21T11:38:38;5.70;;;5.00;;
15466;SDS011;7834;49.452;11.056;2023-04-21T11:41:05;5.22;;;4.72;;
15466;SDS011;7834;49.452;11.056;2023-04-21T11:43:31;5.53;;;4.72;;
15466;SDS011;7834;49.452;11.056;2023-04-21T11:46:15;6.05;;;5.15;;
15466;SDS011;7834;49.452;11.056;2023-04-21T11:48:42;5.90;;;5.30;;
15466;SDS011;7834;49.452;11.056;2023-04-21T11:51:17;6.63;;;5.65;;
15466;SDS011;7834;49.452;11.056;2023-04-21T11:53:45;6.05;;;5.20;;
15466;SDS011;7834;49.452;11.056;2023-04-21T11:56:15;6.78;;;5.97;;
15466;SDS011;7834;49.452;11.056;2023-04-21T11:58:42;7.93;;;5.55;;
15466;SDS011;7834;49.452;11.056;2023-04-21T12:01:10;7.07;;;5.40;;
15466;SDS011;7834;49.452;11.056;2023-04-21T12:03:36;6.75;;;5.10;;
15466;SDS011;7834;49.452;11.056;2023-04-21T12:06:02;7.13;;;4.80;;
15466;SDS011;7834;49.452;11.056;2023-04-21T12:08:28;14.07;;;11.50;;
15466;SDS011;7834;49.452;11.056;2023-04-21T12:10:54;6.43;;;4.63;;
15466;SDS011;7834;49.452;11.056;2023-04-21T12:13:21;5.78;;;5.10;;
15466;SDS011;7834;49.452;11.056;2023-04-21T12:15:47;5.05;;;4.55;;
15466;SDS011;7834;49.452;11.056;2023-04-21T12:18:13;5.15;;;4.13;;
15466;SDS011;7834;49.452;11.056;2023-04-21T12:20:49;6.57;;;4.53;;
15466;SDS011;7834;49.452;11.056;2023-04-21T12:23:15;5.40;;;4.30;;
15466;SDS011;7834;49.452;11.056;2023-04-21T12:25:41;4.88;;;4.30;;
15466;SDS011;7834;49.452;11.056;2023-04-21T12:28:09;5.53;;;4.50;;
15466;SDS011;7834;49.452;11.056;2023-04-21T12:30:36;5.63;;;4.10;;
15466;SDS011;7834;49.452;11.056;2023-04-21T12:33:02;3.92;;;3.50;;
15466;SDS011;7834;49.452;11.056;2023-04-21T12:35:28;6.10;;;4.15;;
15466;SDS011;7834;49.452;11.056;2023-04-21T12:37:54;4.03;;;3.70;;
15466;SDS011;7834;49.452;11.056;2023-04-21T12:40:20;4.30;;;3.42;;
15466;SDS011;7834;49.452;11.056;2023-04-21T12:42:47;5.05;;;3.40;;
15466;SDS011;7834;49.452;11.056;2023-04-21T12:45:14;4.20;;;3.80;;
15466;SDS011;7834;49.452;11.056;2023-04-21T12:47:40;3.92;;;3.53;;
15466;SDS011;7834;49.452;11.056;2023-04-21T12:50:07;4.38;;;3.97;;
15466;SDS011;7834;49.452;11.056;2023-04-21T12:52:34;4.13;;;3.50;;
15466;SDS011;7834;49.452;11.056;2023-04-21T12:55:00;4.20;;;3.70;;
15466;SDS011;7834;49.452;11.056;2023-04-21T12:57:27;3.50;;;3.20;;
15466;SDS011;7834;49.452;11.056;2023-04-21T12:59:53;3.87;;;3.57;;
15466;SDS011;7834;49.452;11.056;2023-04-21T13:02:20;3.40;;;3.10;;
15466;SDS011;7834;49.452;11.056;2023-04-21T13:04:46;7.45;;;6.72;;
15466;SDS011;7834;49.452;11.056;2023-04-21T13:07:12;3.45;;;3.17;;
15466;SDS011;7834;49.452;11.056;2023-04-21T13:09:40;3.38;;;3.03;;
15466;SDS011;7834;49.452;11.056;2023-04-21T13:12:06;3.90;;;2.97;;
15466;SDS011;7834;49.452;11.056;2023-04-21T13:14:32;3.20;;;2.80;;
15466;SDS011;7834;49.452;11.056;2023-04-21T13:16:58;3.17;;;2.80;;
15466;SDS011;7834;49.452;11.056;2023-04-21T13:19:24;3.20;;;3.00;;
15466;SDS011;7834;49.452;11.056;2023-04-21T13:21:50;3.80;;;3.50;;
15466;SDS011;7834;49.452;11.056;2023-04-21T13:24:16;3.63;;;3.33;;
15466;SDS011;7834;49.452;11.056;2023-04-21T13:26:42;3.97;;;3.60;;
15466;SDS011;7834;49.452;11.056;2023-04-21T13:29:09;4.60;;;3.80;;
15466;SDS011;7834;49.452;11.056;2023-04-21T13:31:35;4.30;;;3.85;;
15466;SDS011;7834;49.452;11.056;2023-04-21T13:34:01;4.10;;;3.70;;
15466;SDS011;7834;49.452;11.056;2023-04-21T13:36:27;6.40;;;5.30;;
15466;SDS011;7834;49.452;11.056;2023-04-21T13:38:54;3.97;;;3.58;;
15466;SDS011;7834;49.452;11.056;2023-04-21T13:41:20;3.78;;;3.47;;
15466;SDS011;7834;49.452;11.056;2023-04-21T13:43:46;4.20;;;3.80;;
15466;SDS011;7834;49.452;11.056;2023-04-21T13:46:12;5.10;;;3.45;;
15466;SDS011;7834;49.452;11.056;2023-04-21T13:48:39;3.60;;;3.30;;
15466;SDS011;7834;49.452;11.056;2023-04-21T13:51:05;3.53;;;3.23;;
15466;SDS011;7834;49.452;11.056;2023-04-21T13:53:32;6.07;;;3.58;;
15466;SDS011;7834;49.452;11.056;2023-04-21T13:55:58;3.85;;;3.50;;
15466;SDS011;7834;49.452;11.056;2023-04-21T13:58:24;3.95;;;3.42;;
15466;SDS011;7834;49.452;11.056;2023-04-21T14:00:50;4.15;;;3.50;;
15466;SDS011;7834;49.452;11.056;2023-04-21T14:03:16;3.28;;;3.05;;
15466;SDS011;7834;49.452;11.056;2023-04-21T14:05:43;3.03;;;2.80;;
15466;SDS011;7834;49.452;11.056;2023-04-21T14:08:09;3.10;;;2.80;;
15466;SDS011;7834;49.452;11.056;2023-04-21T14:10:35;3.58;;;3.25;;
15466;SDS011;7834;49.452;11.056;2023-04-21T14:13:01;4.03;;;3.70;;
15466;SDS011;7834;49.452;11.056;2023-04-21T14:15:27;3.28;;;3.08;;
15466;SDS011;7834;49.452;11.056;2023-04-21T14:17:53;3.72;;;3.42;;
15466;SDS011;7834;49.452;11.056;2023-04-21T14:20:20;3.97;;;3.50;;
15466;SDS011;7834;49.452;11.056;2023-04-21T14:22:46;3.80;;;3.07;;
15466;SDS011;7834;49.452;11.056;2023-04-21T14:25:12;3.70;;;3.40;;
15466;SDS011;7834;49.452;11.056;2023-04-21T14:27:38;4.10;;;3.07;;
15466;SDS011;7834;49.452;11.056;2023-04-21T14:30:05;3.50;;;3.20;;
15466;SDS011;7834;49.452;11.056;2023-04-21T14:32:31;3.30;;;3.00;;
15466;SDS011;7834;49.452;11.056;2023-04-21T14:34:57;2.90;;;2.60;;
15466;SDS011;7834;49.452;11.056;2023-04-21T14:37:27;3.17;;;2.50;;
15466;SDS011;7834;49.452;11.056;2023-04-21T14:39:53;2.92;;;2.72;;
15466;SDS011;7834;49.452;11.056;2023-04-21T14:42:19;2.95;;;2.75;;
15466;SDS011;7834;49.452;11.056;2023-04-21T14:44:45;3.97;;;3.25;;